createdAt,value
2019-02-17T00:01:05.391Z,7.05
2019-02-17T00:03:34.226Z,6.75
2019-02-17T00:06:03.106Z,6.67
2019-02-17T00:08:31.971Z,6.55
2019-02-17T00:11:00.567Z,6.10
2019-02-17T00:13:29.155Z,6.15
2019-02-17T00:15:57.739Z,6.05
2019-02-17T00:18:26.332Z,6.10
2019-02-17T00:20:55.177Z,5.72
2019-02-17T00:23:23.848Z,6.33
2019-02-17T00:25:52.684Z,7.42
2019-02-17T00:28:21.294Z,7.05
2019-02-17T00:30:50.096Z,5.90
2019-02-17T00:33:18.744Z,5.55
2019-02-17T00:35:47.798Z,6.25
2019-02-17T00:38:16.376Z,5.35
2019-02-17T00:40:44.956Z,5.35
2019-02-17T00:43:13.552Z,4.70
2019-02-17T00:45:42.146Z,5.08
2019-02-17T00:48:10.707Z,4.40
2019-02-17T00:50:39.616Z,5.17
2019-02-17T00:53:08.182Z,4.75
2019-02-17T00:55:36.858Z,5.90
2019-02-17T00:58:05.440Z,5.17
2019-02-17T01:00:34.066Z,5.05
2019-02-17T01:03:02.655Z,5.33
2019-02-17T01:05:31.259Z,4.53
2019-02-17T01:08:00.098Z,5.40
2019-02-17T01:10:28.708Z,4.83
2019-02-17T01:12:57.533Z,4.85
2019-02-17T01:15:26.119Z,4.83
2019-02-17T01:17:54.949Z,5.22
2019-02-17T01:20:23.765Z,4.50
2019-02-17T01:22:52.593Z,4.42
2019-02-17T01:25:21.191Z,4.78
2019-02-17T01:27:49.759Z,4.92
2019-02-17T01:30:18.593Z,4.70
2019-02-17T01:32:47.243Z,4.37
2019-02-17T01:35:15.800Z,3.72
2019-02-17T01:37:44.398Z,4.80
2019-02-17T01:40:13.121Z,3.45
2019-02-17T01:42:41.794Z,6.03
2019-02-17T01:45:10.566Z,4.60
2019-02-17T01:47:39.175Z,4.30
2019-02-17T01:50:08.017Z,4.97
2019-02-17T01:52:36.857Z,5.22
2019-02-17T01:55:05.557Z,5.45
2019-02-17T01:57:34.430Z,6.03
2019-02-17T02:00:03.208Z,4.45
2019-02-17T02:02:32.050Z,5.33
2019-02-17T02:05:00.601Z,5.42
2019-02-17T02:07:29.467Z,4.60
2019-02-17T02:09:58.049Z,5.00
2019-02-17T02:12:26.883Z,4.50
2019-02-17T02:14:55.456Z,4.90
2019-02-17T02:17:24.073Z,4.80
2019-02-17T02:19:52.675Z,6.33
2019-02-17T02:22:21.586Z,5.35
2019-02-17T02:24:50.199Z,5.08
2019-02-17T02:27:18.770Z,6.05
2019-02-17T02:29:47.357Z,5.92
2019-02-17T02:32:16.265Z,4.80
2019-02-17T02:34:44.888Z,4.85
2019-02-17T02:37:13.592Z,4.12
2019-02-17T02:39:42.183Z,4.62
2019-02-17T02:42:11.026Z,5.10
2019-02-17T02:44:40.072Z,5.50
2019-02-17T02:47:08.770Z,5.47
2019-02-17T02:49:37.377Z,5.08
2019-02-17T02:52:05.984Z,5.17
2019-02-17T02:54:34.712Z,5.40
2019-02-17T02:57:03.611Z,5.33
2019-02-17T02:59:32.953Z,4.33
2019-02-17T03:02:01.543Z,4.72
2019-02-17T03:04:30.266Z,5.30
2019-02-17T03:07:01.368Z,5.62
2019-02-17T03:09:29.969Z,5.25
2019-02-17T03:11:58.642Z,4.53
2019-02-17T03:14:27.272Z,4.30
2019-02-17T03:16:55.890Z,5.00
2019-02-17T03:19:24.512Z,4.70
2019-02-17T03:21:53.129Z,4.67
2019-02-17T03:24:21.737Z,4.58
2019-02-17T03:26:50.558Z,5.05
2019-02-17T03:29:19.121Z,4.65
2019-02-17T03:31:47.952Z,5.58
2019-02-17T03:34:16.815Z,4.75
2019-02-17T03:36:45.674Z,4.03
2019-02-17T03:39:14.319Z,4.85
2019-02-17T03:41:42.925Z,4.70
2019-02-17T03:44:11.566Z,5.03
2019-02-17T03:46:40.832Z,4.80
2019-02-17T03:49:09.850Z,4.80
2019-02-17T03:51:38.506Z,4.87
2019-02-17T03:54:07.090Z,5.05
2019-02-17T03:56:35.705Z,4.42
2019-02-17T03:59:04.487Z,3.92
2019-02-17T04:01:33.600Z,4.30
2019-02-17T04:04:02.430Z,4.80
2019-02-17T04:06:31.097Z,5.03
2019-02-17T04:09:00.109Z,4.95
2019-02-17T04:11:29.165Z,4.33
2019-02-17T04:13:57.796Z,4.35
2019-02-17T04:16:26.552Z,4.30
2019-02-17T04:18:55.524Z,5.25
2019-02-17T04:21:24.534Z,4.65
2019-02-17T04:23:53.136Z,4.55
2019-02-17T04:26:21.777Z,4.70
2019-02-17T04:28:50.651Z,4.60
2019-02-17T04:31:19.469Z,4.87
2019-02-17T04:33:48.453Z,4.28
2019-02-17T04:36:17.113Z,4.42
2019-02-17T04:38:45.820Z,4.45
2019-02-17T04:41:14.470Z,4.58
2019-02-17T04:43:43.323Z,4.53
2019-02-17T04:46:12.167Z,4.60
2019-02-17T04:48:40.780Z,4.67
2019-02-17T04:51:09.436Z,4.45
2019-02-17T04:53:38.023Z,4.90
2019-02-17T04:56:06.877Z,4.22
2019-02-17T04:58:35.722Z,4.30
2019-02-17T05:01:04.311Z,5.00
2019-02-17T05:03:33.118Z,4.10
2019-02-17T05:06:02.100Z,4.45
2019-02-17T05:08:30.801Z,4.20
2019-02-17T05:10:59.383Z,4.25
2019-02-17T05:13:27.949Z,3.85
2019-02-17T05:15:56.599Z,3.70
2019-02-17T05:18:25.201Z,4.20
2019-02-17T05:20:53.776Z,3.47
2019-02-17T05:23:22.386Z,4.05
2019-02-17T05:25:51.109Z,4.40
2019-02-17T05:28:19.788Z,3.72
2019-02-17T05:30:52.969Z,3.60
2019-02-17T05:33:19.202Z,3.77
2019-02-17T05:35:47.811Z,3.67
2019-02-17T05:38:16.429Z,3.75
2019-02-17T05:40:44.983Z,3.77
2019-02-17T05:43:13.589Z,3.52
2019-02-17T05:45:42.144Z,3.47
2019-02-17T05:48:10.728Z,3.47
2019-02-17T05:50:39.303Z,3.58
2019-02-17T05:53:07.892Z,3.72
2019-02-17T05:55:36.481Z,3.47
2019-02-17T05:58:05.060Z,4.00
2019-02-17T06:00:35.461Z,3.70
2019-02-17T06:03:04.063Z,3.37
2019-02-17T06:05:32.651Z,3.70
2019-02-17T06:08:01.224Z,3.27
2019-02-17T06:10:29.823Z,3.98
2019-02-17T06:12:58.420Z,3.92
2019-02-17T06:15:27.004Z,3.83
2019-02-17T06:17:55.602Z,3.92
2019-02-17T06:20:24.169Z,3.60
2019-02-17T06:22:52.766Z,3.30
2019-02-17T06:25:21.345Z,4.05
2019-02-17T06:27:50.036Z,3.40
2019-02-17T06:30:18.606Z,4.40
2019-02-17T06:32:47.420Z,4.10
2019-02-17T06:35:16.031Z,4.75
2019-02-17T06:37:44.627Z,4.65
2019-02-17T06:40:13.344Z,4.35
2019-02-17T06:42:41.918Z,5.22
2019-02-17T06:45:10.880Z,5.83
2019-02-17T06:47:39.467Z,6.60
2019-02-17T06:50:09.195Z,6.33
2019-02-17T06:52:37.766Z,5.90
2019-02-17T06:55:38.592Z,5.85
2019-02-17T06:58:07.425Z,6.65
2019-02-17T07:00:41.629Z,6.05
2019-02-17T07:03:10.221Z,6.83
2019-02-17T07:05:48.151Z,6.08
2019-02-17T07:08:16.785Z,6.55
2019-02-17T07:10:45.603Z,5.45
2019-02-17T07:13:14.282Z,6.33
2019-02-17T07:15:43.162Z,6.35
2019-02-17T07:18:11.775Z,6.17
2019-02-17T07:20:40.360Z,5.97
2019-02-17T07:23:08.950Z,6.78
2019-02-17T07:25:37.548Z,6.35
2019-02-17T07:28:06.379Z,7.12
2019-02-17T07:30:34.978Z,6.62
2019-02-17T07:33:03.632Z,7.72
2019-02-17T07:35:32.258Z,7.10
2019-02-17T07:38:00.876Z,7.60
2019-02-17T07:40:29.529Z,7.40
2019-02-17T07:42:58.151Z,7.70
2019-02-17T07:45:27.049Z,8.20
2019-02-17T07:47:55.771Z,8.80
2019-02-17T07:50:24.632Z,8.10
2019-02-17T07:52:53.314Z,8.83
2019-02-17T07:55:21.982Z,9.43
2019-02-17T07:57:50.593Z,8.90
2019-02-17T08:00:19.297Z,10.10
2019-02-17T08:02:49.572Z,9.73
2019-02-17T08:05:18.267Z,10.13
2019-02-17T08:07:47.112Z,9.90
2019-02-17T08:10:15.714Z,10.43
2019-02-17T08:12:44.311Z,10.17
2019-02-17T08:15:13.094Z,9.93
2019-02-17T08:17:41.797Z,9.80
2019-02-17T08:20:10.502Z,10.63
2019-02-17T08:22:39.303Z,9.70
2019-02-17T08:25:08.086Z,10.60
2019-02-17T08:27:36.696Z,10.33
2019-02-17T08:30:05.971Z,9.20
2019-02-17T08:32:34.697Z,9.30
2019-02-17T08:35:03.304Z,9.77
2019-02-17T08:37:32.053Z,9.20
2019-02-17T08:40:00.987Z,8.00
2019-02-17T08:42:29.739Z,9.80
2019-02-17T08:44:58.612Z,8.17
2019-02-17T08:47:27.257Z,8.17
2019-02-17T08:49:56.067Z,8.10
2019-02-17T08:52:24.746Z,6.23
2019-02-17T08:54:53.357Z,6.20
2019-02-17T08:57:22.313Z,6.97
2019-02-17T08:59:50.923Z,7.10
2019-02-17T09:02:19.569Z,7.13
2019-02-17T09:04:48.132Z,5.47
2019-02-17T09:07:16.996Z,5.83
2019-02-17T09:09:45.720Z,6.87
2019-02-17T09:12:14.783Z,4.03
2019-02-17T09:14:43.398Z,6.33
2019-02-17T09:17:12.022Z,4.97
2019-02-17T09:19:40.606Z,3.37
2019-02-17T09:22:09.296Z,3.60
2019-02-17T09:24:37.898Z,4.27
2019-02-17T09:27:06.808Z,4.20
2019-02-17T09:29:35.397Z,4.43
2019-02-17T09:32:04.491Z,4.97
2019-02-17T09:34:33.361Z,5.10
2019-02-17T09:37:01.964Z,4.57
2019-02-17T09:39:30.844Z,5.37
2019-02-17T09:41:59.466Z,5.03
2019-02-17T09:44:28.075Z,4.73
2019-02-17T09:46:56.638Z,5.43
2019-02-17T09:49:25.489Z,5.70
2019-02-17T09:51:54.203Z,5.30
2019-02-17T09:54:23.006Z,5.50
2019-02-17T09:56:51.626Z,5.20
2019-02-17T09:59:20.275Z,4.93
2019-02-17T10:01:49.092Z,5.17
2019-02-17T10:04:17.758Z,6.27
2019-02-17T10:06:46.530Z,6.23
2019-02-17T10:09:15.331Z,6.60
2019-02-17T10:11:43.915Z,6.30
2019-02-17T10:14:12.637Z,6.40
2019-02-17T10:16:41.360Z,6.53
2019-02-17T10:19:09.951Z,7.30
2019-02-17T10:21:38.560Z,7.53
2019-02-17T10:24:07.154Z,7.37
2019-02-17T10:26:36.040Z,7.00
2019-02-17T10:29:04.639Z,6.57
2019-02-17T10:31:33.283Z,6.30
2019-02-17T10:34:01.869Z,6.90
2019-02-17T10:36:33.368Z,7.33
2019-02-17T10:39:01.974Z,6.70
2019-02-17T10:41:30.588Z,6.10
2019-02-17T10:43:59.513Z,7.17
2019-02-17T10:46:28.108Z,6.43
2019-02-17T10:48:57.021Z,5.43
2019-02-17T10:51:26.542Z,6.30
2019-02-17T10:53:55.517Z,5.70
2019-02-17T10:56:24.111Z,8.00
2019-02-17T10:58:52.740Z,6.20
2019-02-17T11:01:21.375Z,7.17
2019-02-17T11:04:04.621Z,5.20
2019-02-17T11:06:33.291Z,5.60
2019-02-17T11:09:02.165Z,6.57
2019-02-17T11:11:30.845Z,5.97
2019-02-17T11:13:59.459Z,6.10
2019-02-17T11:16:28.094Z,5.87
2019-02-17T11:18:56.712Z,5.40
2019-02-17T11:21:25.274Z,5.73
2019-02-17T11:23:53.934Z,6.83
2019-02-17T11:26:22.517Z,6.47
2019-02-17T11:28:51.122Z,6.57
2019-02-17T11:31:19.715Z,6.53
2019-02-17T11:33:48.619Z,6.00
2019-02-17T11:36:17.229Z,6.17
2019-02-17T11:38:45.892Z,7.17
2019-02-17T11:41:14.542Z,6.70
2019-02-17T11:43:43.406Z,6.33
2019-02-17T11:46:12.030Z,6.63
2019-02-17T11:48:40.613Z,7.73
2019-02-17T11:51:10.312Z,6.10
2019-02-17T11:53:38.878Z,5.80
2019-02-17T11:56:09.061Z,5.23
2019-02-17T11:58:38.672Z,5.93
2019-02-17T12:01:07.305Z,5.70
2019-02-17T12:03:36.022Z,5.73
2019-02-17T12:06:04.712Z,5.60
2019-02-17T12:08:33.537Z,6.30
2019-02-17T12:11:02.132Z,5.90
2019-02-17T12:13:30.785Z,6.83
2019-02-17T12:15:59.484Z,5.23
2019-02-17T12:18:28.085Z,5.87
2019-02-17T12:21:33.730Z,6.37
2019-02-17T12:24:30.281Z,5.70
2019-02-17T12:27:15.719Z,6.77
2019-02-17T12:29:47.187Z,6.13
2019-02-17T12:32:16.476Z,7.90
2019-02-17T12:34:45.064Z,6.27
2019-02-17T12:37:13.760Z,10.70
2019-02-17T12:39:42.376Z,8.90
2019-02-17T12:42:11.246Z,7.90
2019-02-17T12:44:40.127Z,6.80
2019-02-17T12:47:08.749Z,6.00
2019-02-17T12:49:37.345Z,6.47
2019-02-17T12:52:05.923Z,7.60
2019-02-17T12:54:34.738Z,8.20
2019-02-17T12:57:04.070Z,13.43
2019-02-17T12:59:32.832Z,8.50
2019-02-17T13:02:01.442Z,8.57
2019-02-17T13:04:30.060Z,6.40
2019-02-17T13:06:58.731Z,8.43
2019-02-17T13:09:27.877Z,7.90
2019-02-17T13:11:56.490Z,8.47
2019-02-17T13:14:25.109Z,8.70
2019-02-17T13:16:53.707Z,7.87
2019-02-17T13:19:22.371Z,8.20
2019-02-17T13:21:51.023Z,8.77
2019-02-17T13:24:19.668Z,7.10
2019-02-17T13:26:48.275Z,11.63
2019-02-17T13:29:16.938Z,19.40
2019-02-17T13:31:45.596Z,22.77
2019-02-17T13:34:14.378Z,9.77
2019-02-17T13:36:43.094Z,9.83
2019-02-17T13:39:11.727Z,10.70
2019-02-17T13:41:40.333Z,10.53
2019-02-17T13:44:08.990Z,10.27
2019-02-17T13:46:37.645Z,9.10
2019-02-17T13:49:06.319Z,13.10
2019-02-17T13:51:35.143Z,9.93
2019-02-17T13:54:03.786Z,10.30
2019-02-17T13:56:32.659Z,9.57
2019-02-17T13:59:01.318Z,10.00
2019-02-17T14:01:30.462Z,10.30
2019-02-17T14:03:59.083Z,10.47
2019-02-17T14:06:27.702Z,9.20
2019-02-17T14:08:56.440Z,9.43
2019-02-17T14:11:25.125Z,9.83
2019-02-17T14:13:53.951Z,8.77
2019-02-17T14:16:22.736Z,9.10
2019-02-17T14:18:51.330Z,8.17
2019-02-17T14:21:20.016Z,8.50
2019-02-17T14:23:48.680Z,8.37
2019-02-17T14:26:17.270Z,8.43
2019-02-17T14:28:45.871Z,9.40
2019-02-17T14:31:14.462Z,8.60
2019-02-17T14:33:43.058Z,8.40
2019-02-17T14:36:11.846Z,8.00
2019-02-17T14:38:40.441Z,7.90
2019-02-17T14:41:09.087Z,9.33
2019-02-17T14:43:37.661Z,8.97
2019-02-17T14:46:06.283Z,8.37
2019-02-17T14:48:34.882Z,9.47
2019-02-17T14:51:03.768Z,8.80
2019-02-17T14:53:32.734Z,9.60
2019-02-17T14:56:01.479Z,8.93
2019-02-17T14:58:30.323Z,9.83
2019-02-17T15:00:59.178Z,10.17
2019-02-17T15:03:27.755Z,9.10
2019-02-17T15:05:56.434Z,9.00
2019-02-17T15:08:25.039Z,10.10
2019-02-17T15:10:53.759Z,9.37
2019-02-17T15:13:24.745Z,9.13
2019-02-17T15:15:52.791Z,8.70
2019-02-17T15:18:21.507Z,9.03
2019-02-17T15:20:50.197Z,10.03
2019-02-17T15:23:18.822Z,11.00
2019-02-17T15:25:47.510Z,10.27
2019-02-17T15:28:16.318Z,10.40
2019-02-17T15:30:45.334Z,10.07
2019-02-17T15:33:14.298Z,10.40
2019-02-17T15:35:42.893Z,9.03
2019-02-17T15:38:11.515Z,9.57
2019-02-17T15:40:40.200Z,8.97
2019-02-17T15:43:08.877Z,10.90
2019-02-17T15:45:37.725Z,10.10
2019-02-17T15:48:06.305Z,11.60
2019-02-17T15:50:34.909Z,12.07
2019-02-17T15:53:03.487Z,11.60
2019-02-17T15:55:32.086Z,11.30
2019-02-17T15:58:00.758Z,11.27
2019-02-17T16:00:29.342Z,13.50
2019-02-17T16:02:58.027Z,11.53
2019-02-17T16:05:26.714Z,11.47
2019-02-17T16:07:55.607Z,11.30
2019-02-17T16:10:24.216Z,12.23
2019-02-17T16:12:52.821Z,12.23
2019-02-17T16:15:22.057Z,11.60
2019-02-17T16:17:51.019Z,11.47
2019-02-17T16:20:19.739Z,12.63
2019-02-17T16:22:48.802Z,27.77
2019-02-17T16:25:17.433Z,12.07
2019-02-17T16:27:46.046Z,11.20
2019-02-17T16:30:15.168Z,10.80
2019-02-17T16:32:43.849Z,9.30
2019-02-17T16:35:12.518Z,10.27
2019-02-17T16:37:41.145Z,11.07
2019-02-17T16:40:11.363Z,11.40
2019-02-17T16:42:40.819Z,10.57
2019-02-17T16:45:10.908Z,11.63
2019-02-17T16:47:39.703Z,10.80
2019-02-17T16:50:10.686Z,10.43
2019-02-17T16:52:39.637Z,10.33
2019-02-17T16:55:09.663Z,11.30
2019-02-17T16:57:38.432Z,11.57
2019-02-17T17:00:08.565Z,9.87
2019-02-17T17:02:38.566Z,10.50
2019-02-17T17:05:08.072Z,9.67
2019-02-17T17:07:36.726Z,9.40
2019-02-17T17:10:06.392Z,10.00
2019-02-17T17:12:37.745Z,9.43
2019-02-17T17:15:06.685Z,8.90
2019-02-17T17:17:35.342Z,10.30
2019-02-17T17:20:04.034Z,9.47
2019-02-17T17:22:32.655Z,10.00
2019-02-17T17:25:01.248Z,10.30
2019-02-17T17:27:29.860Z,9.40
2019-02-17T17:29:58.439Z,9.00
2019-02-17T17:32:27.126Z,8.83
2019-02-17T17:34:58.785Z,9.43
2019-02-17T17:37:26.425Z,9.87
2019-02-17T17:39:55.045Z,9.90
2019-02-17T17:42:23.702Z,9.40
2019-02-17T17:44:52.304Z,9.47
2019-02-17T17:47:21.165Z,10.07
2019-02-17T17:49:49.759Z,9.80
2019-02-17T17:52:19.063Z,9.97
2019-02-17T17:54:48.019Z,9.77
2019-02-17T17:57:17.229Z,9.37
2019-02-17T17:59:45.893Z,10.47
2019-02-17T18:02:14.741Z,9.73
2019-02-17T18:04:43.519Z,9.20
2019-02-17T18:07:12.182Z,9.60
2019-02-17T18:09:40.838Z,9.70
2019-02-17T18:12:09.448Z,9.77
2019-02-17T18:14:38.062Z,10.17
2019-02-17T18:17:06.700Z,9.97
2019-02-17T18:19:35.344Z,9.53
2019-02-17T18:22:07.592Z,10.50
2019-02-17T18:24:36.386Z,9.00
2019-02-17T18:27:05.029Z,8.93
2019-02-17T18:29:33.716Z,9.50
2019-02-17T18:32:02.284Z,10.53
2019-02-17T18:34:30.880Z,9.43
2019-02-17T18:37:00.551Z,10.40
2019-02-17T18:39:29.175Z,10.73
2019-02-17T18:41:57.715Z,10.63
2019-02-17T18:44:26.286Z,9.93
2019-02-17T18:46:55.110Z,9.50
2019-02-17T18:49:23.931Z,9.70
2019-02-17T18:51:52.554Z,8.83
2019-02-17T18:54:21.146Z,10.10
2019-02-17T18:56:49.742Z,9.93
2019-02-17T18:59:18.381Z,8.97
2019-02-17T19:01:47.115Z,8.40
2019-02-17T19:04:15.675Z,12.50
2019-02-17T19:06:44.504Z,9.43
2019-02-17T19:09:13.100Z,12.50
2019-02-17T19:11:41.933Z,8.10
2019-02-17T19:14:11.250Z,7.50
2019-02-17T19:16:43.303Z,6.40
2019-02-17T19:19:12.004Z,6.80
2019-02-17T19:21:43.979Z,6.87
2019-02-17T19:24:12.651Z,6.00
2019-02-17T19:26:41.228Z,6.10
2019-02-17T19:29:10.203Z,5.70
2019-02-17T19:31:38.861Z,6.03
2019-02-17T19:34:07.495Z,6.40
2019-02-17T19:36:36.055Z,5.90
2019-02-17T19:39:05.917Z,6.30
2019-02-17T19:41:34.487Z,5.93
2019-02-17T19:44:03.091Z,5.70
2019-02-17T19:46:32.017Z,6.83
2019-02-17T19:49:00.711Z,6.13
2019-02-17T19:51:29.321Z,6.03
2019-02-17T19:53:58.000Z,5.73
2019-02-17T19:56:26.824Z,5.57
2019-02-17T19:58:55.406Z,6.50
2019-02-17T20:01:24.217Z,5.57
2019-02-17T20:04:12.135Z,6.27
2019-02-17T20:06:40.661Z,6.27
2019-02-17T20:09:16.824Z,6.00
2019-02-17T20:11:45.397Z,6.00
2019-02-17T20:14:14.301Z,6.20
2019-02-17T20:16:42.910Z,6.43
2019-02-17T20:19:11.510Z,6.20
2019-02-17T20:21:40.103Z,6.30
2019-02-17T20:24:08.728Z,5.87
2019-02-17T20:26:37.365Z,6.67
2019-02-17T20:29:06.073Z,6.07
2019-02-17T20:31:34.638Z,6.27
2019-02-17T20:34:03.455Z,6.87
2019-02-17T20:36:32.059Z,6.60
2019-02-17T20:39:00.709Z,5.97
2019-02-17T20:41:29.912Z,6.03
2019-02-17T20:43:58.532Z,5.70
2019-02-17T20:46:27.130Z,5.67
2019-02-17T20:48:55.981Z,5.20
2019-02-17T20:51:24.580Z,5.73
2019-02-17T20:53:53.240Z,5.87
2019-02-17T20:56:21.960Z,5.60
2019-02-17T20:58:50.838Z,6.40
2019-02-17T21:01:19.673Z,5.43
2019-02-17T21:03:48.257Z,5.40
2019-02-17T21:06:16.929Z,5.20
2019-02-17T21:08:45.730Z,6.03
2019-02-17T21:11:14.776Z,5.00
2019-02-17T21:13:43.363Z,5.77
2019-02-17T21:16:12.272Z,5.40
2019-02-17T21:18:40.839Z,5.50
2019-02-17T21:21:09.772Z,5.33
2019-02-17T21:23:38.367Z,6.73
2019-02-17T21:26:07.128Z,4.83
2019-02-17T21:28:35.887Z,6.17
2019-02-17T21:31:04.844Z,5.37
2019-02-17T21:33:33.648Z,4.73
2019-02-17T21:36:02.360Z,4.77
2019-02-17T21:38:30.930Z,4.80
2019-02-17T21:41:08.997Z,5.87
2019-02-17T21:43:30.090Z,4.90
2019-02-17T21:45:59.009Z,5.00
2019-02-17T21:48:27.659Z,5.37
2019-02-17T21:50:56.536Z,5.10
2019-02-17T21:53:25.237Z,4.97
2019-02-17T21:55:53.973Z,5.07
2019-02-17T21:58:22.640Z,5.03
2019-02-17T22:00:51.251Z,5.40
2019-02-17T22:03:19.873Z,5.30
2019-02-17T22:05:48.525Z,4.67
2019-02-17T22:08:17.140Z,5.00
2019-02-17T22:10:45.907Z,4.93
2019-02-17T22:13:14.604Z,5.07
2019-02-17T22:15:43.647Z,5.57
2019-02-17T22:18:12.666Z,5.23
2019-02-17T22:20:41.280Z,4.40
2019-02-17T22:23:09.947Z,4.60
2019-02-17T22:25:38.648Z,5.07
2019-02-17T22:28:07.363Z,5.07
2019-02-17T22:30:36.037Z,4.60
2019-02-17T22:33:04.684Z,5.30
2019-02-17T22:35:33.291Z,5.17
2019-02-17T22:38:02.088Z,5.20
2019-02-17T22:40:30.738Z,5.30
2019-02-17T22:42:59.343Z,4.67
2019-02-17T22:45:27.910Z,5.40
2019-02-17T22:47:56.560Z,4.60
2019-02-17T22:50:25.207Z,4.40
2019-02-17T22:52:54.317Z,4.97
2019-02-17T22:55:22.950Z,3.93
2019-02-17T22:57:51.604Z,5.23
2019-02-17T23:00:32.684Z,4.37
2019-02-17T23:03:01.523Z,5.10
2019-02-17T23:05:30.222Z,4.23
2019-02-17T23:07:58.891Z,4.77
2019-02-17T23:10:27.449Z,5.00
2019-02-17T23:12:56.326Z,4.93
2019-02-17T23:15:24.886Z,4.63
2019-02-17T23:17:53.524Z,4.53
2019-02-17T23:20:22.186Z,4.80
2019-02-17T23:22:51.253Z,4.40
2019-02-17T23:25:20.100Z,4.23
2019-02-17T23:27:48.748Z,4.50
2019-02-17T23:30:17.419Z,5.20
2019-02-17T23:32:46.073Z,4.60
2019-02-17T23:35:14.894Z,4.50
2019-02-17T23:37:43.487Z,4.70
2019-02-17T23:40:12.246Z,5.53
2019-02-17T23:42:40.912Z,4.87
2019-02-17T23:45:09.716Z,4.97
2019-02-17T23:47:38.286Z,5.47
2019-02-17T23:50:07.130Z,4.63
2019-02-17T23:52:35.716Z,5.07
2019-02-17T23:55:04.547Z,5.17
2019-02-17T23:57:33.480Z,5.00
